createdAt,value
2018-12-20T00:00:13.185Z,6.40
2018-12-20T00:02:40.603Z,6.40
2018-12-20T00:05:08.115Z,6.50
2018-12-20T00:07:35.578Z,6.50
2018-12-20T00:10:03.758Z,6.50
2018-12-20T00:12:31.259Z,6.60
2018-12-20T00:14:58.695Z,6.70
2018-12-20T00:17:31.851Z,6.70
2018-12-20T00:19:59.331Z,6.70
2018-12-20T00:22:26.659Z,6.80
2018-12-20T00:24:54.877Z,6.80
2018-12-20T00:27:22.357Z,6.70
2018-12-20T00:29:49.736Z,6.80
2018-12-20T00:32:17.195Z,6.80
2018-12-20T00:34:44.641Z,6.80
2018-12-20T00:37:12.347Z,6.80
2018-12-20T00:39:39.686Z,6.80
2018-12-20T00:42:07.020Z,6.80
2018-12-20T00:44:37.480Z,6.80
2018-12-20T00:47:02.029Z,6.80
2018-12-20T00:49:29.401Z,6.80
2018-12-20T00:51:56.936Z,6.70
2018-12-20T00:54:25.856Z,6.70
2018-12-20T00:56:54.056Z,6.70
2018-12-20T00:59:21.557Z,6.70
2018-12-20T01:01:49.032Z,6.70
2018-12-20T01:04:16.382Z,6.70
2018-12-20T01:06:43.843Z,6.70
2018-12-20T01:09:11.270Z,6.70
2018-12-20T01:11:38.796Z,6.70
2018-12-20T01:14:06.960Z,6.70
2018-12-20T01:16:34.342Z,6.60
2018-12-20T01:19:01.820Z,6.70
2018-12-20T01:21:29.262Z,6.70
2018-12-20T01:23:56.715Z,6.70
2018-12-20T01:26:24.167Z,6.60
2018-12-20T01:28:52.386Z,6.60
2018-12-20T01:31:19.866Z,6.70
2018-12-20T01:33:48.118Z,6.60
2018-12-20T01:36:16.138Z,6.60
2018-12-20T01:38:43.564Z,6.70
2018-12-20T01:41:11.034Z,6.70
2018-12-20T01:43:38.489Z,6.70
2018-12-20T01:46:05.943Z,6.70
2018-12-20T01:48:33.651Z,6.60
2018-12-20T01:51:01.583Z,6.60
2018-12-20T01:53:29.106Z,6.60
2018-12-20T01:55:56.520Z,6.60
2018-12-20T01:58:23.985Z,6.60
2018-12-20T02:00:51.663Z,6.60
2018-12-20T02:03:18.979Z,6.70
2018-12-20T02:05:47.342Z,6.70
2018-12-20T02:08:14.689Z,6.70
2018-12-20T02:10:42.093Z,6.70
2018-12-20T02:13:09.591Z,6.70
2018-12-20T02:15:37.754Z,6.70
2018-12-20T02:18:05.355Z,6.70
2018-12-20T02:20:32.643Z,6.70
2018-12-20T02:23:00.948Z,6.70
2018-12-20T02:25:28.526Z,6.60
2018-12-20T02:27:55.974Z,6.70
2018-12-20T02:30:23.379Z,6.70
2018-12-20T02:32:50.674Z,6.60
2018-12-20T02:35:18.882Z,6.60
2018-12-20T02:37:46.475Z,6.60
2018-12-20T02:40:14.804Z,6.60
2018-12-20T02:42:41.984Z,6.60
2018-12-20T02:45:11.015Z,6.60
2018-12-20T02:47:37.621Z,6.60
2018-12-20T02:50:05.064Z,6.60
2018-12-20T02:52:33.308Z,6.60
2018-12-20T02:55:00.973Z,6.60
2018-12-20T02:57:28.324Z,6.60
2018-12-20T02:59:56.376Z,6.60
2018-12-20T03:02:24.056Z,6.60
2018-12-20T03:04:51.274Z,6.60
2018-12-20T03:07:19.533Z,6.70
2018-12-20T03:09:46.961Z,6.70
2018-12-20T03:12:14.652Z,6.70
2018-12-20T03:14:41.844Z,6.70
2018-12-20T03:17:09.296Z,6.70
2018-12-20T03:19:37.010Z,6.70
2018-12-20T03:22:04.324Z,6.70
2018-12-20T03:24:31.725Z,6.80
2018-12-20T03:26:59.112Z,6.80
2018-12-20T03:29:26.745Z,6.70
2018-12-20T03:31:54.097Z,6.70
2018-12-20T03:34:21.569Z,6.70
2018-12-20T03:36:48.953Z,6.70
2018-12-20T03:39:17.288Z,6.80
2018-12-20T03:41:44.549Z,6.70
2018-12-20T03:44:12.811Z,6.80
2018-12-20T03:46:40.264Z,6.80
2018-12-20T03:49:07.764Z,6.80
2018-12-20T03:51:35.199Z,6.80
2018-12-20T03:54:02.628Z,6.80
2018-12-20T03:56:30.354Z,6.80
2018-12-20T03:58:57.823Z,6.80
2018-12-20T04:01:25.984Z,6.80
2018-12-20T04:03:53.412Z,6.80
2018-12-20T04:06:20.714Z,6.80
2018-12-20T04:08:49.189Z,6.80
2018-12-20T04:11:16.409Z,6.80
2018-12-20T04:13:43.838Z,6.90
2018-12-20T04:16:11.479Z,6.80
2018-12-20T04:18:38.784Z,6.80
2018-12-20T04:21:06.347Z,6.90
2018-12-20T04:23:33.887Z,6.90
2018-12-20T04:26:01.118Z,6.90
2018-12-20T04:28:29.481Z,6.90
2018-12-20T04:30:56.953Z,6.90
2018-12-20T04:33:24.407Z,6.90
2018-12-20T04:35:51.863Z,6.90
2018-12-20T04:38:19.267Z,6.90
2018-12-20T04:40:47.467Z,6.90
2018-12-20T04:43:14.810Z,6.90
2018-12-20T04:45:46.632Z,6.90
2018-12-20T04:48:09.683Z,7.00
2018-12-20T04:50:37.125Z,6.90
2018-12-20T04:53:04.555Z,7.00
2018-12-20T04:55:32.035Z,7.00
2018-12-20T04:57:59.736Z,7.00
2018-12-20T05:00:26.893Z,7.00
2018-12-20T05:02:55.294Z,7.00
2018-12-20T05:05:23.520Z,7.00
2018-12-20T05:07:50.754Z,6.90
2018-12-20T05:10:18.988Z,7.00
2018-12-20T05:12:46.709Z,7.00
2018-12-20T05:15:14.138Z,7.00
2018-12-20T05:17:41.326Z,7.00
2018-12-20T05:20:09.603Z,7.00
2018-12-20T05:22:36.982Z,7.00
2018-12-20T05:25:04.429Z,7.00
2018-12-20T05:27:33.838Z,7.00
2018-12-20T05:30:02.290Z,7.00
2018-12-20T05:32:29.527Z,7.00
2018-12-20T05:34:56.933Z,7.10
2018-12-20T05:37:25.157Z,7.00
2018-12-20T05:39:52.677Z,7.00
2018-12-20T05:42:20.298Z,7.00
2018-12-20T05:44:47.727Z,7.00
2018-12-20T05:47:15.713Z,7.00
2018-12-20T05:49:43.187Z,7.00
2018-12-20T05:52:10.595Z,7.00
2018-12-20T05:54:38.031Z,7.00
2018-12-20T05:57:05.487Z,7.00
2018-12-20T05:59:32.932Z,7.00
2018-12-20T06:02:00.460Z,7.00
2018-12-20T06:04:28.570Z,7.00
2018-12-20T06:06:56.151Z,7.00
2018-12-20T06:09:24.315Z,7.00
2018-12-20T06:11:51.865Z,7.00
2018-12-20T06:14:19.222Z,7.00
2018-12-20T06:16:46.756Z,7.00
2018-12-20T06:19:14.868Z,6.90
2018-12-20T06:21:42.528Z,7.00
2018-12-20T06:24:09.906Z,7.00
2018-12-20T06:26:37.363Z,7.00
2018-12-20T06:29:04.829Z,7.00
2018-12-20T06:31:32.312Z,7.00
2018-12-20T06:33:59.763Z,7.00
2018-12-20T06:36:27.214Z,7.00
2018-12-20T06:38:54.693Z,7.00
2018-12-20T06:41:22.168Z,7.00
2018-12-20T06:43:49.625Z,6.90
2018-12-20T06:46:21.181Z,7.00
2018-12-20T06:48:44.526Z,6.90
2018-12-20T06:51:12.029Z,6.90
2018-12-20T06:53:39.486Z,7.00
2018-12-20T06:56:06.922Z,6.90
2018-12-20T06:58:34.378Z,6.90
2018-12-20T07:01:01.820Z,7.00
2018-12-20T07:03:30.054Z,7.00
2018-12-20T07:05:57.486Z,7.00
2018-12-20T07:08:24.955Z,7.00
2018-12-20T07:10:52.413Z,7.00
2018-12-20T07:13:19.854Z,7.00
2018-12-20T07:15:47.319Z,7.00
2018-12-20T07:18:15.549Z,6.90
2018-12-20T07:20:42.981Z,7.00
2018-12-20T07:23:10.428Z,7.00
2018-12-20T07:25:37.866Z,7.00
2018-12-20T07:28:05.320Z,6.90
2018-12-20T07:30:32.765Z,6.90
2018-12-20T07:33:00.943Z,6.90
2018-12-20T07:35:28.376Z,7.00
2018-12-20T07:37:55.833Z,6.90
2018-12-20T07:40:23.303Z,6.90
2018-12-20T07:42:50.735Z,6.90
2018-12-20T07:45:18.941Z,6.90
2018-12-20T07:47:46.406Z,6.90
2018-12-20T07:50:13.869Z,6.90
2018-12-20T07:52:41.298Z,7.00
2018-12-20T07:55:09.515Z,7.00
2018-12-20T07:57:36.969Z,6.90
2018-12-20T08:00:04.420Z,7.00
2018-12-20T08:02:31.871Z,7.00
2018-12-20T08:05:00.080Z,7.00
2018-12-20T08:07:27.529Z,6.90
2018-12-20T08:09:54.993Z,7.00
2018-12-20T08:12:22.437Z,7.00
2018-12-20T08:14:50.641Z,7.00
2018-12-20T08:17:18.098Z,7.00
2018-12-20T08:19:45.551Z,7.00
2018-12-20T08:22:13.004Z,7.00
2018-12-20T08:24:41.222Z,7.10
2018-12-20T08:27:08.663Z,7.10
2018-12-20T08:29:36.093Z,7.10
2018-12-20T08:32:04.322Z,7.10
2018-12-20T08:34:31.765Z,7.10
2018-12-20T08:36:59.215Z,7.10
2018-12-20T08:39:27.430Z,7.10
2018-12-20T08:41:54.890Z,7.10
2018-12-20T08:44:22.308Z,7.10
2018-12-20T08:46:54.312Z,7.10
2018-12-20T08:49:17.984Z,7.10
2018-12-20T08:51:49.058Z,7.00
2018-12-20T08:54:12.869Z,7.10
2018-12-20T08:56:40.314Z,7.10
2018-12-20T08:59:07.778Z,7.00
2018-12-20T09:01:35.251Z,7.10
2018-12-20T09:04:02.656Z,7.10
2018-12-20T09:06:30.122Z,7.10
2018-12-20T09:08:57.584Z,7.10
2018-12-20T09:11:25.048Z,7.10
2018-12-20T09:13:52.542Z,7.10
2018-12-20T09:16:20.011Z,7.10
2018-12-20T09:18:48.411Z,7.10
2018-12-20T09:21:16.066Z,7.10
2018-12-20T09:23:43.496Z,7.20
2018-12-20T09:26:10.940Z,7.20
2018-12-20T09:28:38.399Z,7.10
2018-12-20T09:31:05.850Z,7.10
2018-12-20T09:33:34.082Z,7.10
2018-12-20T09:36:01.497Z,7.10
2018-12-20T09:38:28.941Z,7.10
2018-12-20T09:40:57.149Z,7.10
2018-12-20T09:43:25.044Z,7.10
2018-12-20T09:45:52.808Z,7.10
2018-12-20T09:48:20.259Z,7.10
2018-12-20T09:50:47.699Z,7.10
2018-12-20T09:53:15.904Z,7.20
2018-12-20T09:55:43.361Z,7.20
2018-12-20T09:58:10.815Z,7.20
2018-12-20T10:00:38.269Z,7.30
2018-12-20T10:03:06.487Z,7.30
2018-12-20T10:05:33.939Z,7.30
2018-12-20T10:08:01.395Z,7.30
2018-12-20T10:10:28.837Z,7.40
2018-12-20T10:12:57.063Z,7.40
2018-12-20T10:15:24.511Z,7.40
2018-12-20T10:17:51.962Z,7.50
2018-12-20T10:20:19.427Z,7.50
2018-12-20T10:22:46.896Z,7.50
2018-12-20T10:25:14.354Z,7.60
2018-12-20T10:27:41.815Z,7.50
2018-12-20T10:30:09.307Z,7.50
2018-12-20T10:32:36.726Z,7.50
2018-12-20T10:35:04.204Z,7.50
2018-12-20T10:37:31.656Z,7.40
2018-12-20T10:39:59.124Z,7.40
2018-12-20T10:42:26.576Z,7.50
2018-12-20T10:44:54.033Z,7.50
2018-12-20T10:47:28.772Z,7.50
2018-12-20T10:49:50.722Z,7.60
2018-12-20T10:52:19.417Z,7.60
2018-12-20T10:54:45.627Z,7.60
2018-12-20T10:57:13.849Z,7.70
2018-12-20T10:59:41.306Z,7.70
2018-12-20T11:02:14.467Z,7.80
2018-12-20T11:04:48.493Z,7.80
2018-12-20T11:07:21.647Z,7.80
2018-12-20T11:09:54.841Z,7.80
2018-12-20T11:12:26.131Z,7.80
2018-12-20T11:14:53.563Z,7.70
2018-12-20T11:17:21.780Z,7.70
2018-12-20T11:19:49.260Z,7.70
2018-12-20T11:24:55.251Z,7.70
2018-12-20T11:27:22.746Z,7.60
2018-12-20T11:29:50.196Z,7.60
2018-12-20T11:32:17.635Z,7.60
2018-12-20T11:34:45.095Z,7.60
2018-12-20T11:37:12.548Z,7.60
2018-12-20T11:39:40.006Z,7.60
2018-12-20T11:42:07.471Z,7.50
2018-12-20T11:44:35.693Z,7.50
2018-12-20T11:47:04.485Z,7.50
2018-12-20T11:49:31.939Z,7.50
2018-12-20T11:51:59.383Z,7.50
2018-12-20T11:54:26.843Z,7.50
2018-12-20T11:56:54.299Z,7.50
2018-12-20T11:59:21.763Z,7.50
2018-12-20T12:01:49.211Z,7.50
2018-12-20T12:04:16.679Z,7.50
2018-12-20T12:06:44.135Z,7.40
2018-12-20T12:09:11.608Z,7.40
2018-12-20T12:11:39.082Z,7.40
2018-12-20T12:14:06.539Z,7.40
2018-12-20T12:16:33.995Z,7.40
2018-12-20T12:19:01.453Z,7.30
2018-12-20T12:21:28.917Z,7.30
2018-12-20T12:23:56.379Z,7.40
2018-12-20T12:26:23.861Z,7.40
2018-12-20T12:28:51.315Z,7.40
2018-12-20T12:31:18.772Z,7.40
2018-12-20T12:33:46.239Z,7.40
2018-12-20T12:36:13.694Z,7.50
2018-12-20T12:38:41.136Z,7.50
2018-12-20T12:41:08.606Z,7.50
2018-12-20T12:43:36.055Z,7.60
2018-12-20T12:46:03.593Z,7.60
2018-12-20T12:48:31.062Z,7.60
2018-12-20T12:50:58.520Z,7.60
2018-12-20T12:53:26.834Z,7.60
2018-12-20T12:55:54.268Z,7.60
2018-12-20T12:58:22.500Z,7.60
2018-12-20T13:00:49.959Z,7.60
2018-12-20T13:03:17.406Z,7.60
2018-12-20T13:05:44.855Z,7.60
2018-12-20T13:08:12.339Z,7.60
2018-12-20T13:10:39.777Z,7.70
2018-12-20T13:13:07.237Z,7.60
2018-12-20T13:15:35.443Z,7.70
2018-12-20T13:18:09.849Z,7.60
2018-12-20T13:20:31.291Z,7.60
2018-12-20T13:22:58.732Z,7.60
2018-12-20T13:25:26.188Z,7.60
2018-12-20T13:27:54.418Z,7.60
2018-12-20T13:30:21.879Z,7.70
2018-12-20T13:32:49.433Z,7.60
2018-12-20T13:35:16.903Z,7.70
2018-12-20T13:37:45.117Z,7.70
2018-12-20T13:40:12.590Z,7.60
2018-12-20T13:42:40.840Z,7.70
2018-12-20T13:45:08.296Z,7.60
2018-12-20T13:47:35.748Z,7.70
2018-12-20T13:50:03.865Z,7.70
2018-12-20T13:52:32.102Z,7.70
2018-12-20T13:54:59.568Z,7.70
2018-12-20T13:57:27.039Z,7.70
2018-12-20T13:59:54.495Z,7.70
2018-12-20T14:02:22.719Z,7.70
2018-12-20T14:04:50.938Z,7.80
2018-12-20T14:07:18.409Z,7.80
2018-12-20T14:09:45.876Z,7.80
2018-12-20T14:12:13.338Z,7.80
2018-12-20T14:14:40.795Z,7.80
2018-12-20T14:17:08.225Z,7.80
2018-12-20T14:19:35.700Z,7.80
2018-12-20T14:22:03.751Z,7.80
2018-12-20T14:24:31.981Z,7.90
2018-12-20T14:26:59.422Z,7.90
2018-12-20T14:29:26.912Z,7.90
2018-12-20T14:31:54.367Z,7.90
2018-12-20T14:34:21.839Z,7.90
2018-12-20T14:36:49.303Z,7.90
2018-12-20T14:39:16.759Z,7.90
2018-12-20T14:41:44.218Z,7.90
2018-12-20T14:44:11.675Z,7.90
2018-12-20T14:46:39.135Z,7.90
2018-12-20T14:49:06.585Z,7.90
2018-12-20T14:51:34.041Z,7.90
2018-12-20T14:54:01.491Z,7.90
2018-12-20T14:56:29.714Z,7.90
2018-12-20T14:58:57.184Z,7.90
2018-12-20T15:01:24.719Z,7.90
2018-12-20T15:03:52.196Z,7.90
2018-12-20T15:06:19.632Z,7.90
2018-12-20T15:08:47.087Z,7.90
2018-12-20T15:11:14.543Z,7.90
2018-12-20T15:13:42.001Z,7.90
2018-12-20T15:16:10.237Z,7.90
2018-12-20T15:18:37.698Z,7.90
2018-12-20T15:21:05.145Z,7.90
2018-12-20T15:23:32.605Z,7.90
2018-12-20T15:26:00.077Z,7.90
2018-12-20T15:28:27.529Z,7.20
2018-12-20T15:30:54.998Z,8.00
2018-12-20T15:33:22.454Z,8.00
2018-12-20T15:35:49.923Z,8.00
2018-12-20T15:38:17.362Z,8.00
2018-12-20T15:40:44.817Z,8.00
2018-12-20T15:43:13.085Z,8.00
2018-12-20T15:45:40.537Z,8.00
2018-12-20T15:48:07.997Z,8.00
2018-12-20T15:50:35.458Z,8.10
2018-12-20T15:53:03.816Z,8.10
2018-12-20T15:55:31.259Z,8.10
2018-12-20T15:57:58.724Z,8.10
2018-12-20T16:00:26.187Z,8.20
2018-12-20T16:02:53.654Z,8.10
2018-12-20T16:05:21.115Z,8.20
2018-12-20T16:07:48.571Z,8.20
2018-12-20T16:10:16.026Z,8.20
2018-12-20T16:12:43.507Z,8.20
2018-12-20T16:15:10.958Z,8.20
2018-12-20T16:17:38.727Z,8.20
2018-12-20T16:20:06.197Z,8.20
2018-12-20T16:22:33.632Z,8.20
2018-12-20T16:25:01.971Z,8.10
2018-12-20T16:27:29.348Z,8.10
2018-12-20T16:29:56.789Z,8.10
2018-12-20T16:32:25.023Z,8.10
2018-12-20T16:34:53.235Z,8.10
2018-12-20T16:37:20.677Z,8.10
2018-12-20T16:39:48.139Z,8.10
2018-12-20T16:42:15.594Z,8.10
2018-12-20T16:44:43.053Z,8.10
2018-12-20T16:47:11.632Z,8.10
2018-12-20T16:49:39.844Z,8.00
2018-12-20T16:52:07.288Z,8.00
2018-12-20T16:54:34.731Z,8.10
2018-12-20T16:57:03.858Z,8.00
2018-12-20T16:59:31.311Z,8.00
2018-12-20T17:01:58.769Z,8.00
2018-12-20T17:04:27.007Z,8.00
2018-12-20T17:06:54.457Z,8.00
2018-12-20T17:09:22.708Z,8.10
2018-12-20T17:11:50.159Z,8.10
2018-12-20T17:14:18.374Z,8.10
2018-12-20T17:16:45.827Z,8.10
2018-12-20T17:19:13.277Z,8.10
2018-12-20T17:21:40.721Z,8.00
2018-12-20T17:24:08.954Z,8.00
2018-12-20T17:26:36.414Z,8.00
2018-12-20T17:29:04.698Z,8.10
2018-12-20T17:31:32.162Z,8.00
2018-12-20T17:34:01.737Z,8.10
2018-12-20T17:36:27.079Z,8.10
2018-12-20T17:38:54.591Z,8.10
2018-12-20T17:41:22.810Z,8.00
2018-12-20T17:43:50.273Z,8.00
2018-12-20T17:46:17.715Z,8.00
2018-12-20T17:48:45.203Z,8.00
2018-12-20T17:51:13.008Z,8.00
2018-12-20T17:53:40.471Z,8.00
2018-12-20T17:56:07.935Z,8.00
2018-12-20T17:58:35.387Z,8.00
2018-12-20T18:01:04.530Z,8.00
2018-12-20T18:03:31.986Z,8.00
2018-12-20T18:06:00.189Z,8.00
2018-12-20T18:08:27.642Z,7.90
2018-12-20T18:10:55.102Z,8.00
2018-12-20T18:13:23.316Z,8.00
2018-12-20T18:15:50.794Z,8.00
2018-12-20T18:18:18.354Z,8.00
2018-12-20T18:20:45.713Z,8.00
2018-12-20T18:23:13.175Z,8.00
2018-12-20T18:25:40.659Z,8.00
2018-12-20T18:28:08.107Z,8.00
2018-12-20T18:30:35.550Z,8.00
2018-12-20T18:33:03.673Z,8.00
2018-12-20T18:35:31.125Z,8.00
2018-12-20T18:37:59.309Z,8.00
2018-12-20T18:40:26.762Z,8.00
2018-12-20T18:42:54.220Z,8.00
2018-12-20T18:45:21.666Z,8.00
2018-12-20T18:47:49.115Z,8.00
2018-12-20T18:50:16.552Z,8.00
2018-12-20T18:52:44.004Z,7.90
2018-12-20T18:55:12.218Z,8.00
2018-12-20T18:57:39.653Z,8.00
2018-12-20T19:00:07.873Z,7.90
2018-12-20T19:02:35.329Z,7.90
2018-12-20T19:05:03.521Z,7.90
2018-12-20T19:07:31.738Z,8.00
2018-12-20T19:09:59.963Z,8.00
2018-12-20T19:12:27.378Z,8.00
2018-12-20T19:14:55.595Z,8.00
2018-12-20T19:17:23.038Z,8.00
2018-12-20T19:19:56.210Z,8.00
2018-12-20T19:22:18.711Z,8.00
2018-12-20T19:24:46.162Z,8.00
2018-12-20T19:27:13.599Z,8.00
2018-12-20T19:29:41.817Z,8.00
2018-12-20T19:32:09.250Z,8.00
2018-12-20T19:34:36.698Z,8.00
2018-12-20T19:37:05.808Z,8.00
2018-12-20T19:39:34.022Z,8.00
2018-12-20T19:42:01.490Z,8.00
2018-12-20T19:44:28.917Z,8.00
2018-12-20T19:46:57.113Z,8.00
2018-12-20T19:49:24.571Z,8.00
2018-12-20T19:51:52.034Z,8.00
2018-12-20T19:54:19.476Z,8.00
2018-12-20T19:56:47.679Z,8.00
2018-12-20T19:59:15.124Z,8.00
2018-12-20T20:01:43.339Z,8.00
2018-12-20T20:04:10.775Z,8.00
2018-12-20T20:06:38.223Z,8.00
2018-12-20T20:09:06.440Z,8.00
2018-12-20T20:11:33.890Z,8.00
2018-12-20T20:14:01.334Z,8.00
2018-12-20T20:16:29.543Z,8.00
2018-12-20T20:18:56.995Z,8.00
2018-12-20T20:21:24.445Z,8.00
2018-12-20T20:23:51.874Z,8.00
2018-12-20T20:26:19.321Z,8.00
2018-12-20T20:28:46.788Z,8.00
2018-12-20T20:31:14.214Z,8.00
2018-12-20T20:33:41.666Z,7.90
2018-12-20T20:36:09.106Z,8.00
2018-12-20T20:38:37.328Z,8.00
2018-12-20T20:41:04.774Z,8.00
2018-12-20T20:43:32.226Z,8.00
2018-12-20T20:45:59.678Z,8.00
2018-12-20T20:48:27.878Z,7.90
2018-12-20T20:50:55.326Z,7.90
2018-12-20T20:53:22.782Z,7.90
2018-12-20T20:55:50.998Z,7.90
2018-12-20T20:58:18.432Z,7.90
2018-12-20T21:00:45.860Z,7.90
2018-12-20T21:03:13.317Z,7.90
2018-12-20T21:05:40.752Z,7.90
2018-12-20T21:08:08.197Z,7.90
2018-12-20T21:10:35.644Z,7.90
2018-12-20T21:13:03.462Z,7.90
2018-12-20T21:15:33.741Z,7.90
2018-12-20T21:18:01.958Z,7.90
2018-12-20T21:20:30.740Z,7.90
2018-12-20T21:22:56.882Z,7.90
2018-12-20T21:25:24.332Z,7.90
2018-12-20T21:27:51.786Z,7.90
2018-12-20T21:30:19.246Z,7.90
2018-12-20T21:32:46.664Z,7.90
2018-12-20T21:35:14.107Z,7.90
2018-12-20T21:37:41.546Z,7.90
2018-12-20T21:40:08.994Z,7.90
2018-12-20T21:42:36.431Z,7.90
2018-12-20T21:45:03.974Z,7.90
2018-12-20T21:47:31.410Z,8.00
2018-12-20T21:49:58.855Z,7.90
2018-12-20T21:52:26.293Z,7.90
2018-12-20T21:54:53.730Z,8.00
2018-12-20T21:57:21.636Z,8.00
2018-12-20T21:59:48.621Z,8.00
2018-12-20T22:02:16.066Z,8.00
2018-12-20T22:04:43.596Z,8.00
2018-12-20T22:07:11.803Z,8.00
2018-12-20T22:09:39.251Z,8.00
2018-12-20T22:12:06.698Z,8.00
2018-12-20T22:14:34.895Z,8.00
2018-12-20T22:17:02.325Z,8.00
2018-12-20T22:19:29.762Z,8.00
2018-12-20T22:21:57.307Z,8.00
2018-12-20T22:24:24.775Z,8.00
2018-12-20T22:26:52.195Z,8.00
2018-12-20T22:29:20.420Z,8.00
2018-12-20T22:31:47.859Z,8.00
2018-12-20T22:34:15.301Z,8.00
2018-12-20T22:36:43.518Z,8.00
2018-12-20T22:39:10.957Z,8.00
2018-12-20T22:41:38.413Z,8.00
2018-12-20T22:44:06.611Z,8.00
2018-12-20T22:46:34.068Z,8.00
2018-12-20T22:49:01.523Z,8.00
2018-12-20T22:51:29.725Z,8.00
2018-12-20T22:53:57.145Z,8.00
2018-12-20T22:56:25.357Z,8.00
2018-12-20T22:58:52.816Z,8.00
2018-12-20T23:01:20.251Z,8.00
2018-12-20T23:03:48.511Z,8.00
2018-12-20T23:06:15.938Z,8.00
2018-12-20T23:08:43.383Z,8.00
2018-12-20T23:11:10.853Z,8.00
2018-12-20T23:13:38.283Z,8.00
2018-12-20T23:16:06.504Z,8.00
2018-12-20T23:18:33.957Z,8.00
2018-12-20T23:21:05.074Z,8.00
2018-12-20T23:23:29.584Z,8.00
2018-12-20T23:25:57.803Z,7.90
2018-12-20T23:28:25.254Z,8.00
2018-12-20T23:30:52.705Z,8.00
2018-12-20T23:33:20.138Z,8.00
2018-12-20T23:35:48.359Z,7.90
2018-12-20T23:38:15.809Z,7.90
2018-12-20T23:40:43.266Z,7.90
2018-12-20T23:43:10.705Z,7.90
2018-12-20T23:45:38.916Z,7.90
2018-12-20T23:48:06.343Z,7.90
2018-12-20T23:50:35.421Z,7.80
2018-12-20T23:53:04.529Z,7.80
2018-12-20T23:55:31.977Z,7.80
2018-12-20T23:57:59.426Z,7.90
